Time;durP1;ratioP1;P1;durP2;ratioP2;P2;SDS_P1;SDS_P2;PMS_P1;PMS_P2;Temp;Humidity;BMP_temperature;BMP_pressure;BME280_temperature;BME280_humidity;BME280_pressure;Samples;Min_cycle;Max_cycle;Signal;HPM_P1;HPM_P2
2022/01/02 00:00:17;;;;;;;7.63;4.40;;;;;;;10.19;90.99;101792.03;5091183;28;20486;-86
2022/01/02 00:02:48;;;;;;;9.88;4.72;;;;;;;10.22;91.08;101792.00;5076295;28;20040;-86
2022/01/02 00:05:15;;;;;;;9.02;4.88;;;;;;;10.23;90.79;101783.31;5071354;28;20037;-86
2022/01/02 00:08:02;;;;;;;8.02;4.85;;;;;;;10.27;91.02;101789.44;5072120;28;20024;-86
2022/01/02 00:10:32;;;;;;;11.73;5.07;;;;;;;10.27;91.11;101807.66;5071249;28;20146;-86
2022/01/02 00:12:59;;;;;;;8.50;4.32;;;;;;;10.27;90.71;101810.28;5071321;28;20031;-87
2022/01/02 00:15:25;;;;;;;7.25;4.75;;;;;;;10.24;90.88;101812.88;5071514;28;20044;-86
2022/01/02 00:17:53;;;;;;;6.88;4.47;;;;;;;10.28;90.49;101815.47;5071356;28;20021;-86
2022/01/02 00:20:31;;;;;;;8.63;4.50;;;;;;;10.28;90.74;101814.59;5072310;28;20040;-86
2022/01/02 00:23:05;;;;;;;7.97;5.00;;;;;;;10.24;90.68;101795.47;5072293;28;20060;-87
2022/01/02 00:25:34;;;;;;;9.50;5.07;;;;;;;10.27;90.76;101812.88;5070812;28;20102;-86
2022/01/02 00:28:00;;;;;;;9.07;5.07;;;;;;;10.31;90.65;101799.81;5071889;28;20059;-88
2022/01/02 00:30:26;;;;;;;11.13;5.18;;;;;;;10.32;90.81;101798.06;5087850;28;20067;-87
2022/01/02 00:32:51;;;;;;;10.45;5.43;;;;;;;10.29;91.08;101779.84;5091606;28;20051;-87
2022/01/02 00:35:17;;;;;;;8.88;4.70;;;;;;;10.29;91.76;101783.31;5092092;28;20361;-87
2022/01/02 00:37:42;;;;;;;13.98;4.72;;;;;;;10.25;92.24;101794.59;5091817;28;20551;-86
2022/01/02 00:40:09;;;;;;;8.38;4.97;;;;;;;10.18;93.54;101794.66;5091263;28;20365;-87
2022/01/02 00:42:41;;;;;;;8.52;4.78;;;;;;;10.01;95.98;101798.25;5091563;28;20032;-86
2022/01/02 00:45:27;;;;;;;8.05;4.75;;;;;;;9.91;96.43;101799.16;5090686;28;20020;-86
2022/01/02 00:48:13;;;;;;;10.90;5.20;;;;;;;9.79;97.99;101794.88;5089868;28;20028;-86
2022/01/02 00:50:46;;;;;;;8.00;5.35;;;;;;;9.72;99.27;101795.78;5091529;28;20078;-87
2022/01/02 00:53:16;;;;;;;9.60;5.05;;;;;;;9.61;100.00;101789.75;5090714;28;20035;-88
2022/01/02 00:55:43;;;;;;;10.65;5.85;;;;;;;9.52;100.00;101795.88;5091622;28;20028;-87
2022/01/02 00:58:19;;;;;;;7.80;5.35;;;;;;;9.47;100.00;101787.19;5092076;28;20108;-87
2022/01/02 01:00:50;;;;;;;9.88;5.47;;;;;;;9.37;100.00;101769.88;5090153;28;20402;-87
2022/01/02 01:03:30;;;;;;;10.73;5.72;;;;;;;9.37;100.00;101782.91;5091793;28;20027;-88
2022/01/02 01:06:01;;;;;;;9.57;5.57;;;;;;;9.32;100.00;101766.47;5092174;28;20036;-88
2022/01/02 01:08:30;;;;;;;11.70;6.05;;;;;;;9.33;100.00;101776.84;5090593;28;20554;-88
2022/01/02 01:10:56;;;;;;;10.68;5.47;;;;;;;9.32;100.00;101774.25;5091889;28;20074;-87
2022/01/02 01:13:23;;;;;;;10.25;6.38;;;;;;;9.31;100.00;101764.69;5091605;28;20029;-87
2022/01/02 01:15:49;;;;;;;10.38;5.38;;;;;;;9.26;100.00;101756.94;5089454;28;20028;-87
2022/01/02 01:18:14;;;;;;;11.70;5.93;;;;;;;9.29;100.00;101761.25;5089505;28;20085;-88
2022/01/02 01:20:43;;;;;;;10.77;5.78;;;;;;;9.26;100.00;101751.72;5092108;28;20020;-87
2022/01/02 01:23:15;;;;;;;10.55;6.63;;;;;;;9.23;100.00;101748.28;5094845;28;20075;-88
2022/01/02 01:25:44;;;;;;;10.95;5.97;;;;;;;9.22;100.00;101741.31;5095458;28;20093;-88
2022/01/02 01:28:10;;;;;;;14.68;6.32;;;;;;;9.20;100.00;101743.06;5095117;28;20050;-88
2022/01/02 01:30:35;;;;;;;11.52;6.90;;;;;;;9.24;100.00;101743.03;5093447;28;20540;-87
2022/01/02 01:33:00;;;;;;;14.30;6.05;;;;;;;9.16;100.00;101721.41;5095367;28;20067;-87
2022/01/02 01:35:25;;;;;;;11.77;5.78;;;;;;;9.21;100.00;101730.03;5094455;28;20505;-89
2022/01/02 01:37:51;;;;;;;13.63;7.20;;;;;;;9.21;100.00;101731.78;5095468;28;20503;-88
2022/01/02 01:40:17;;;;;;;11.10;6.05;;;;;;;9.22;100.00;101728.31;5095490;28;20483;-88
2022/01/02 01:42:55;;;;;;;12.25;6.13;;;;;;;9.25;100.00;101736.09;5094064;28;20091;-87
2022/01/02 01:48:03;;;;;;;19.45;6.15;;;;;;;9.19;100.00;101728.31;5095007;28;20468;-88
2022/01/02 01:50:42;;;;;;;11.97;6.23;;;;;;;9.19;100.00;101720.50;5093745;28;20046;-88
2022/01/02 01:53:09;;;;;;;12.23;5.57;;;;;;;9.17;100.00;101704.06;5094739;28;20028;-89
2022/01/02 01:55:36;;;;;;;14.27;6.20;;;;;;;9.17;100.00;101710.13;5094494;28;20034;-87
2022/01/02 01:58:03;;;;;;;15.90;5.85;;;;;;;9.16;100.00;101713.59;5094373;28;20020;-86
2022/01/02 02:00:29;;;;;;;11.60;5.60;;;;;;;9.15;100.00;101709.25;5082730;28;20044;-87
2022/01/02 02:02:56;;;;;;;11.30;5.88;;;;;;;9.11;100.00;101700.59;5074609;28;20044;-86
2022/01/02 02:05:22;;;;;;;12.57;6.53;;;;;;;9.13;100.00;101698.88;5073867;28;20354;-90
2022/01/02 02:07:47;;;;;;;13.00;6.43;;;;;;;9.14;100.00;101684.13;5074234;28;20031;-86
2022/01/02 02:10:24;;;;;;;11.70;6.07;;;;;;;9.14;100.00;101682.38;5074336;28;20476;-87
2022/01/02 02:12:53;;;;;;;12.55;5.90;;;;;;;9.11;100.00;101671.97;5074601;28;20028;-87
2022/01/02 02:15:19;;;;;;;11.05;5.78;;;;;;;9.16;100.00;101671.13;5073841;28;20029;-88
2022/01/02 02:17:46;;;;;;;14.15;6.40;;;;;;;9.19;100.00;101676.28;5073349;28;20728;-87
2022/01/02 02:20:16;;;;;;;15.05;6.13;;;;;;;9.18;100.00;101669.34;5074243;28;20025;-88
2022/01/02 02:22:45;;;;;;;12.98;6.13;;;;;;;9.19;100.00;101661.56;5073786;28;20179;-87
2022/01/02 02:25:11;;;;;;;15.60;6.20;;;;;;;9.18;100.00;101648.53;5073834;28;20388;-87
2022/01/02 02:27:36;;;;;;;12.70;5.80;;;;;;;9.14;100.00;101647.69;5073883;28;20392;-90
2022/01/02 02:30:04;;;;;;;15.27;6.18;;;;;;;9.22;100.00;101651.16;5084409;28;20043;-88
2022/01/02 02:32:29;;;;;;;12.88;6.47;;;;;;;9.21;100.00;101635.53;5092087;28;20114;-87
2022/01/02 02:34:55;;;;;;;14.13;6.25;;;;;;;9.26;100.00;101652.00;5094442;28;20153;-89
2022/01/02 02:37:20;;;;;;;15.05;5.28;;;;;;;9.21;100.00;101652.00;5094134;28;20052;-88
2022/01/02 02:39:45;;;;;;;14.40;5.75;;;;;;;9.24;100.00;101653.72;5093254;28;20379;-87
2022/01/02 02:42:23;;;;;;;13.75;5.53;;;;;;;9.27;100.00;101653.72;5094307;28;20035;-88
2022/01/02 02:44:57;;;;;;;10.90;6.03;;;;;;;9.27;100.00;101649.38;5093433;28;20028;-86
2022/01/02 02:50:06;;;;;;;14.43;6.32;;;;;;;9.27;100.00;101628.53;5094368;28;20429;-86
2022/01/02 02:52:42;;;;;;;15.43;6.10;;;;;;;9.27;100.00;101614.69;5093246;28;20024;-86
2022/01/02 02:55:08;;;;;;;13.75;5.63;;;;;;;9.29;100.00;101632.03;5093766;28;20131;-87
2022/01/02 02:57:34;;;;;;;15.18;6.45;;;;;;;9.30;100.00;101622.47;5093478;28;20067;-87
2022/01/02 02:59:59;;;;;;;14.93;6.15;;;;;;;9.30;100.00;101622.47;5091701;28;20028;-86
2022/01/02 03:02:24;;;;;;;13.23;6.32;;;;;;;9.31;100.00;101613.78;5093149;28;20024;-87
2022/01/02 03:04:49;;;;;;;15.23;7.03;;;;;;;9.31;100.00;101621.59;5093850;28;20027;-86
2022/01/02 03:07:17;;;;;;;15.68;6.18;;;;;;;9.35;100.00;101626.78;5092663;28;20418;-87
2022/01/02 03:09:48;;;;;;;21.83;6.20;;;;;;;9.36;100.00;101625.91;5093137;28;20475;-88
2022/01/02 03:12:14;;;;;;;14.88;6.28;;;;;;;9.33;100.00;101612.91;5093715;28;20028;-88
2022/01/02 03:14:39;;;;;;;16.90;6.40;;;;;;;9.33;100.00;101602.50;5077183;28;20036;-88
2022/01/02 03:17:05;;;;;;;16.30;6.70;;;;;;;9.40;100.00;101607.66;5073541;28;20028;-87
2022/01/02 03:19:32;;;;;;;13.48;5.82;;;;;;;9.40;100.00;101618.94;5072693;28;20468;-88
2022/01/02 03:21:58;;;;;;;17.35;6.43;;;;;;;9.39;100.00;101617.22;5072079;28;20089;-88
2022/01/02 03:24:23;;;;;;;14.85;6.93;;;;;;;9.36;100.00;101612.03;5073009;28;20485;-88
2022/01/02 03:26:49;;;;;;;15.88;6.65;;;;;;;9.41;100.00;101615.44;5072803;28;20036;-88
2022/01/02 03:29:14;;;;;;;22.05;7.10;;;;;;;9.41;100.00;101602.44;5084496;28;20028;-87
2022/01/02 03:31:39;;;;;;;15.88;6.30;;;;;;;9.37;100.00;101598.13;5092710;28;20104;-87
2022/01/02 03:34:05;;;;;;;14.90;6.30;;;;;;;9.39;100.00;101612.00;5093246;28;20399;-87
2022/01/02 03:36:30;;;;;;;18.58;6.47;;;;;;;9.39;100.00;101609.41;5091820;28;20379;-88
2022/01/02 03:38:55;;;;;;;15.32;6.15;;;;;;;9.38;100.00;101612.88;5093046;28;20495;-87
2022/01/02 03:41:21;;;;;;;16.85;6.90;;;;;;;9.43;100.00;101623.25;5093149;28;20023;-90
2022/01/02 03:43:46;;;;;;;14.50;5.88;;;;;;;9.46;100.00;101610.22;5089097;28;20498;-87
2022/01/02 03:46:12;;;;;;;14.70;6.20;;;;;;;9.44;100.00;101607.63;5091981;28;20036;-87
2022/01/02 03:48:37;;;;;;;11.98;6.07;;;;;;;9.39;100.00;101586.00;5092474;28;20070;-87
2022/01/02 03:51:02;;;;;;;14.18;6.05;;;;;;;9.37;100.00;101593.78;5092306;28;20111;-87
2022/01/02 03:53:28;;;;;;;19.27;6.30;;;;;;;9.40;100.00;101595.50;5092208;28;20105;-89
2022/01/02 03:55:53;;;;;;;12.85;6.00;;;;;;;9.39;100.00;101586.00;5092066;28;20025;-86
2022/01/02 03:58:19;;;;;;;13.60;6.60;;;;;;;9.38;100.00;101573.81;5091868;28;20546;-89
2022/01/02 04:00:44;;;;;;;14.25;6.38;;;;;;;9.41;100.00;101584.22;5074701;28;20028;-88
2022/01/02 04:03:09;;;;;;;15.90;6.80;;;;;;;9.37;100.00;101578.16;5071431;28;20445;-87
2022/01/02 04:05:35;;;;;;;17.13;6.28;;;;;;;9.41;100.00;101559.94;5071854;28;20051;-87
2022/01/02 04:08:00;;;;;;;10.20;5.75;;;;;;;9.36;100.00;101558.25;5072376;28;20032;-88
2022/01/02 04:10:25;;;;;;;12.60;6.25;;;;;;;9.36;100.00;101554.78;5071153;28;20464;-87
2022/01/02 04:12:51;;;;;;;14.77;6.97;;;;;;;9.39;100.00;101554.75;5079210;28;20055;-87
2022/01/02 04:15:17;;;;;;;14.63;6.10;;;;;;;9.35;100.00;101553.03;5092220;28;20404;-88
2022/01/02 04:17:42;;;;;;;13.25;5.60;;;;;;;9.31;100.00;101549.59;5091374;28;20070;-88
2022/01/02 04:20:11;;;;;;;14.38;6.07;;;;;;;9.32;100.00;101547.88;5092300;28;20069;-88
2022/01/02 04:22:37;;;;;;;17.17;6.65;;;;;;;9.35;100.00;101553.91;5074346;28;20053;-88
2022/01/02 04:25:03;;;;;;;14.23;5.82;;;;;;;9.35;100.00;101559.13;5091514;28;20036;-87
2022/01/02 04:27:31;;;;;;;12.13;6.25;;;;;;;9.33;100.00;101566.06;5084006;28;20035;-87
2022/01/02 04:29:57;;;;;;;13.95;6.65;;;;;;;9.34;100.00;101559.97;5071973;28;20082;-87
2022/01/02 04:32:22;;;;;;;15.27;6.25;;;;;;;9.33;100.00;101550.44;5071511;28;20032;-87
2022/01/02 04:34:47;;;;;;;14.45;6.05;;;;;;;9.34;100.00;101548.72;5071628;28;20128;-86
2022/01/02 04:37:13;;;;;;;15.60;6.20;;;;;;;9.33;100.00;101549.59;5072010;28;20082;-87
2022/01/02 04:39:39;;;;;;;13.73;6.20;;;;;;;9.32;100.00;101547.88;5070716;28;20031;-87
2022/01/02 04:42:05;;;;;;;17.10;6.50;;;;;;;9.30;100.00;101536.59;5076226;28;20407;-87
2022/01/02 04:44:30;;;;;;;16.75;5.82;;;;;;;9.33;100.00;101536.59;5091478;28;20043;-87
2022/01/02 04:46:55;;;;;;;17.98;6.45;;;;;;;9.32;100.00;101522.72;5091678;28;20380;-88
2022/01/02 04:49:21;;;;;;;15.18;5.57;;;;;;;9.28;100.00;101513.19;5090475;28;20081;-88
2022/01/02 04:51:46;;;;;;;19.08;6.68;;;;;;;9.32;100.00;101519.25;5091442;28;20531;-87
2022/01/02 04:54:11;;;;;;;15.25;6.90;;;;;;;9.29;100.00;101503.66;5090918;28;20097;-88
2022/01/02 04:56:37;;;;;;;14.68;5.82;;;;;;;9.29;100.00;101504.53;5093778;28;20024;-87
2022/01/02 04:59:02;;;;;;;17.30;6.00;;;;;;;9.29;100.00;101495.84;5095860;28;20357;-88
2022/01/02 05:01:27;;;;;;;13.75;5.97;;;;;;;9.28;100.00;101478.50;5094975;28;20047;-87
2022/01/02 05:03:53;;;;;;;21.67;6.95;;;;;;;9.26;100.00;101467.25;5096433;28;20032;-88
2022/01/02 05:06:18;;;;;;;12.45;6.18;;;;;;;9.25;100.00;101460.31;5092764;28;20032;-88
2022/01/02 05:08:45;;;;;;;16.50;6.28;;;;;;;9.22;100.00;101450.81;5095452;28;20024;-87
2022/01/02 05:11:11;;;;;;;16.65;5.97;;;;;;;9.24;100.00;101456.00;5096020;28;20043;-88
2022/01/02 05:13:36;;;;;;;16.70;5.90;;;;;;;9.22;100.00;101447.31;5094619;28;20103;-88
2022/01/02 05:16:02;;;;;;;14.13;5.82;;;;;;;9.21;100.00;101440.41;5096072;28;20060;-88
2022/01/02 05:18:27;;;;;;;17.63;5.90;;;;;;;9.22;100.00;101452.53;5095443;28;20027;-87
2022/01/02 05:20:53;;;;;;;12.57;6.43;;;;;;;9.21;100.00;101451.66;5076449;28;20097;-88
2022/01/02 05:23:19;;;;;;;11.80;6.40;;;;;;;9.20;100.00;101443.88;5075296;28;20480;-89
2022/01/02 05:25:45;;;;;;;20.60;6.65;;;;;;;9.20;100.00;101433.47;5074900;28;20126;-87
2022/01/02 05:28:11;;;;;;;17.45;6.82;;;;;;;9.18;100.00;101433.47;5074588;28;20056;-88
2022/01/02 05:30:37;;;;;;;17.63;7.10;;;;;;;9.17;100.00;101428.31;5074980;28;20059;-88
2022/01/02 05:33:03;;;;;;;17.65;8.00;;;;;;;9.18;100.00;101424.81;5075256;28;20028;-88
2022/01/02 05:35:29;;;;;;;18.60;6.97;;;;;;;9.14;100.00;101416.19;5090939;28;20036;-89
2022/01/02 05:37:55;;;;;;;17.13;6.97;;;;;;;9.18;100.00;101417.00;5095448;28;20047;-88
2022/01/02 05:40:20;;;;;;;17.10;6.57;;;;;;;9.18;100.00;101415.28;5095293;28;20047;-86
2022/01/02 05:42:45;;;;;;;16.23;7.50;;;;;;;9.17;100.00;101413.56;5094106;28;20368;-87
2022/01/02 05:45:11;;;;;;;17.13;6.43;;;;;;;9.13;100.00;101406.66;5095440;28;20025;-88
2022/01/02 05:47:38;;;;;;;16.55;6.63;;;;;;;9.07;100.00;101397.16;5094857;28;20189;-88
2022/01/02 05:50:04;;;;;;;16.02;7.18;;;;;;;9.17;100.00;101402.28;5079815;28;20024;-88
2022/01/02 05:52:31;;;;;;;15.93;7.10;;;;;;;9.13;100.00;101385.84;5074616;28;20032;-88
2022/01/02 05:54:57;;;;;;;17.55;7.18;;;;;;;9.10;100.00;101376.31;5074700;28;20044;-88
2022/01/02 05:57:22;;;;;;;12.75;6.45;;;;;;;9.11;100.00;101367.63;5073852;28;20038;-88
2022/01/02 05:59:47;;;;;;;12.18;6.03;;;;;;;9.12;100.00;101360.69;5074172;28;20125;-89
2022/01/02 06:02:12;;;;;;;14.70;6.47;;;;;;;9.10;100.00;101345.13;5074664;28;20032;-87
2022/01/02 06:04:38;;;;;;;15.18;5.93;;;;;;;9.10;100.00;101331.25;5088222;28;20036;-89
2022/01/02 06:07:04;;;;;;;12.93;6.07;;;;;;;9.11;100.00;101343.38;5091734;28;20173;-88
2022/01/02 06:09:29;;;;;;;11.25;5.95;;;;;;;9.07;100.00;101329.53;5093337;28;20031;-88
2022/01/02 06:11:55;;;;;;;13.23;5.75;;;;;;;9.09;100.00;101320.00;5094415;28;20391;-90
2022/01/02 06:14:20;;;;;;;11.88;5.60;;;;;;;9.08;100.00;101322.59;5094687;28;20035;-89
2022/01/02 06:16:45;;;;;;;14.95;6.43;;;;;;;9.00;100.00;101314.88;5093490;28;20105;-89
2022/01/02 06:19:10;;;;;;;13.57;5.72;;;;;;;9.02;100.00;101317.44;5094517;28;20024;-88
2022/01/02 06:21:36;;;;;;;15.93;6.43;;;;;;;9.02;100.00;101318.28;5093211;28;20468;-89
2022/01/02 06:24:01;;;;;;;8.77;5.22;;;;;;;9.02;100.00;101294.03;5093754;28;20020;-88
2022/01/02 06:26:26;;;;;;;16.10;5.60;;;;;;;9.01;100.00;101280.16;5093946;28;20713;-88
2022/01/02 06:28:51;;;;;;;12.10;5.47;;;;;;;9.00;100.00;101270.66;5094891;28;20028;-88
2022/01/02 06:31:17;;;;;;;13.25;5.20;;;;;;;8.99;100.00;101263.75;5093626;28;20062;-88
2022/01/02 06:33:42;;;;;;;10.13;5.38;;;;;;;8.97;100.00;101260.28;5093950;28;20024;-88
2022/01/02 06:36:07;;;;;;;14.43;5.00;;;;;;;8.94;100.00;101238.66;5092892;28;20032;-88
2022/01/02 06:38:32;;;;;;;10.80;5.07;;;;;;;8.90;100.00;101225.69;5093040;28;20038;-88
2022/01/02 06:40:58;;;;;;;9.73;4.97;;;;;;;8.90;100.00;101219.63;5094214;28;20028;-88
2022/01/02 06:43:23;;;;;;;8.38;4.53;;;;;;;8.88;100.00;101213.56;5094064;28;20103;-90
2022/01/02 06:45:48;;;;;;;20.08;5.40;;;;;;;8.90;100.00;101201.44;5093133;28;20490;-88
2022/01/02 06:48:14;;;;;;;9.82;5.28;;;;;;;8.85;100.00;101182.41;5094143;28;20052;-90
2022/01/02 06:50:39;;;;;;;9.52;4.85;;;;;;;8.88;100.00;101187.56;5090043;28;20418;-88
2022/01/02 06:53:05;;;;;;;8.35;4.63;;;;;;;8.88;100.00;101187.56;5071969;28;20029;-88
2022/01/02 06:55:31;;;;;;;9.63;4.55;;;;;;;8.82;100.00;101161.63;5073029;28;20067;-88
2022/01/02 06:57:56;;;;;;;9.57;5.05;;;;;;;8.88;100.00;101183.22;5073095;28;20460;-89
2022/01/02 07:00:22;;;;;;;10.07;4.35;;;;;;;8.87;100.00;101181.50;5093478;28;20020;-88
2022/01/02 07:02:47;;;;;;;10.02;4.90;;;;;;;8.86;100.00;101177.19;5093364;28;20076;-90
2022/01/02 07:05:12;;;;;;;7.35;3.92;;;;;;;8.85;100.00;101169.41;5093000;28;20043;-87
2022/01/02 07:07:45;;;;;;;9.85;4.45;;;;;;;8.86;100.00;101159.00;5092787;28;20020;-88
2022/01/02 07:10:12;;;;;;;8.30;4.50;;;;;;;8.86;100.00;101160.72;5093365;28;20073;-89
2022/01/02 07:12:38;;;;;;;9.45;4.10;;;;;;;8.85;100.00;101157.25;5091792;28;20034;-88
2022/01/02 07:15:05;;;;;;;8.73;4.30;;;;;;;8.84;100.00;101168.53;5074252;28;20039;-88
2022/01/02 07:17:30;;;;;;;12.40;5.07;;;;;;;8.84;100.00;101165.94;5093339;28;20032;-88
2022/01/02 07:19:55;;;;;;;8.60;4.00;;;;;;;8.86;100.00;101179.81;5092235;28;20371;-89
2022/01/02 07:22:21;;;;;;;7.07;4.10;;;;;;;8.87;100.00;101181.50;5093507;28;20020;-89
2022/01/02 07:24:51;;;;;;;10.13;4.53;;;;;;;8.82;100.00;101167.69;5091408;28;20047;-88
2022/01/02 07:27:17;;;;;;;10.48;4.05;;;;;;;8.85;100.00;101156.41;5092816;28;20039;-89
2022/01/02 07:29:42;;;;;;;10.43;4.35;;;;;;;8.81;100.00;101154.72;5092818;28;20493;-89
2022/01/02 07:32:08;;;;;;;8.18;3.90;;;;;;;8.79;100.00;101149.53;5093359;28;20110;-87
2022/01/02 07:34:33;;;;;;;7.65;4.13;;;;;;;8.80;100.00;101137.41;5092017;28;20028;-87
2022/01/02 07:36:58;;;;;;;7.88;3.72;;;;;;;8.78;100.00;101136.56;5093130;28;20483;-88
2022/01/02 07:39:24;;;;;;;10.45;3.83;;;;;;;8.82;100.00;101157.28;5091409;28;20544;-87
2022/01/02 07:41:49;;;;;;;5.85;4.07;;;;;;;8.83;100.00;101160.78;5091923;28;20035;-88
2022/01/02 07:44:14;;;;;;;6.20;3.45;;;;;;;8.81;100.00;101141.72;5093179;28;20032;-88
2022/01/02 07:46:39;;;;;;;7.00;4.07;;;;;;;8.82;100.00;101156.44;5092371;28;20064;-87
2022/01/02 07:49:05;;;;;;;7.65;3.85;;;;;;;8.82;100.00;101172.03;5092338;28;20058;-87
2022/01/02 07:51:31;;;;;;;6.28;3.83;;;;;;;8.83;100.00;101163.38;5092314;28;20357;-88
2022/01/02 07:53:56;;;;;;;11.15;4.25;;;;;;;8.82;100.00;101188.50;5091479;28;20052;-88
2022/01/02 07:56:22;;;;;;;8.40;3.85;;;;;;;8.84;100.00;101178.09;5092312;28;20020;-87
2022/01/02 07:58:47;;;;;;;7.95;4.10;;;;;;;8.83;100.00;101202.38;5092508;28;20484;-87
2022/01/02 08:01:12;;;;;;;7.55;3.85;;;;;;;8.79;100.00;101188.50;5092885;28;20028;-87
2022/01/02 08:03:38;;;;;;;7.47;4.32;;;;;;;8.82;100.00;101196.28;5091468;28;20035;-87
2022/01/02 08:06:03;;;;;;;7.57;3.80;;;;;;;8.86;100.00;101179.81;5092496;28;20024;-88
2022/01/02 08:08:28;;;;;;;8.52;4.32;;;;;;;8.82;100.00;101172.03;5090511;28;20476;-89
2022/01/02 08:10:53;;;;;;;8.60;4.40;;;;;;;8.82;100.00;101172.88;5090041;28;20024;-88
2022/01/02 08:13:19;;;;;;;11.27;4.55;;;;;;;8.80;100.00;101185.06;5092499;28;20035;-87
2022/01/02 08:15:44;;;;;;;7.95;4.38;;;;;;;8.80;100.00;101194.59;5089848;28;20027;-87
2022/01/02 08:18:13;;;;;;;9.23;5.03;;;;;;;8.79;100.00;101193.72;5091649;28;20020;-87
2022/01/02 08:20:39;;;;;;;8.63;4.60;;;;;;;8.77;100.00;101192.91;5091782;28;20491;-88
2022/01/02 08:23:05;;;;;;;7.50;4.20;;;;;;;8.81;100.00;101201.50;5090304;28;20024;-87
2022/01/02 08:25:30;;;;;;;8.52;4.20;;;;;;;8.80;100.00;101192.88;5091289;28;20023;-88
2022/01/02 08:27:55;;;;;;;9.18;5.22;;;;;;;8.79;100.00;101177.25;5092137;28;20380;-88
2022/01/02 08:30:21;;;;;;;8.52;4.57;;;;;;;8.82;100.00;101175.50;5091071;28;20152;-87
2022/01/02 08:32:46;;;;;;;7.63;4.35;;;;;;;8.82;100.00;101179.84;5091775;28;20353;-87
2022/01/02 08:35:11;;;;;;;8.30;4.72;;;;;;;8.84;100.00;101193.69;5091999;28;20024;-88
2022/01/02 08:37:36;;;;;;;9.07;4.22;;;;;;;8.81;100.00;101183.31;5089996;28;20031;-88
2022/01/02 08:40:02;;;;;;;8.38;4.55;;;;;;;8.79;100.00;101177.25;5092131;28;20089;-89
2022/01/02 08:42:28;;;;;;;7.72;4.47;;;;;;;8.78;100.00;101179.00;5091795;28;20039;-87
2022/01/02 08:44:53;;;;;;;7.45;4.05;;;;;;;8.80;100.00;101189.41;5091277;28;20020;-88
2022/01/02 08:47:18;;;;;;;6.72;3.88;;;;;;;8.82;100.00;101182.44;5090188;28;20107;-89
2022/01/02 08:49:44;;;;;;;8.05;4.20;;;;;;;8.88;100.00;101196.22;5091554;28;20031;-88
2022/01/02 08:52:09;;;;;;;8.02;4.30;;;;;;;8.89;100.00;101189.28;5091369;28;20464;-88
2022/01/02 08:54:34;;;;;;;7.00;4.15;;;;;;;8.98;100.00;101204.78;5089147;28;20063;-87
2022/01/02 08:57:02;;;;;;;7.13;3.85;;;;;;;9.00;100.00;101203.03;5092048;28;20031;-88
2022/01/02 08:59:28;;;;;;;6.65;4.50;;;;;;;9.04;100.00;101206.47;5090731;28;20030;-87
2022/01/02 09:01:54;;;;;;;7.40;4.30;;;;;;;9.07;100.00;101199.50;5092208;28;20387;-87
2022/01/02 09:04:19;;;;;;;9.45;4.70;;;;;;;9.01;100.00;101191.75;5091837;28;20110;-87
2022/01/02 09:06:45;;;;;;;7.68;4.45;;;;;;;8.97;100.00;101197.88;5090581;28;20124;-86
2022/01/02 09:09:10;;;;;;;8.18;4.63;;;;;;;8.99;100.00;101201.34;5081555;28;20032;-88
2022/01/02 09:11:35;;;;;;;8.13;4.57;;;;;;;9.00;100.00;101190.03;5071213;28;20473;-86
2022/01/02 09:14:02;;;;;;;8.98;4.25;;;;;;;9.04;100.00;101189.13;5070799;28;20025;-87
2022/01/02 09:16:28;;;;;;;7.43;4.47;;;;;;;9.08;100.00;101188.19;5071274;28;20388;-88
2022/01/02 09:18:53;;;;;;;11.55;5.47;;;;;;;9.13;100.00;101188.16;5071819;28;20021;-88
2022/01/02 09:21:18;;;;;;;10.90;5.07;;;;;;;9.18;100.00;101188.94;5070131;28;20116;-88
2022/01/02 09:23:43;;;;;;;9.18;5.20;;;;;;;9.28;100.00;101182.75;5071151;28;20384;-89
2022/01/02 09:26:09;;;;;;;8.50;5.07;;;;;;;9.41;100.00;101186.06;5071549;28;20492;-86
2022/01/02 09:28:35;;;;;;;9.98;5.47;;;;;;;9.53;100.00;101191.09;5070017;28;20493;-85
2022/01/02 09:31:00;;;;;;;9.68;5.55;;;;;;;9.66;100.00;101180.53;5071497;28;20033;-87
2022/01/02 09:33:26;;;;;;;11.55;5.63;;;;;;;9.80;100.00;101187.25;5070623;28;20044;-87
2022/01/02 09:35:51;;;;;;;11.90;5.57;;;;;;;9.89;100.00;101186.25;5072139;28;20387;-88
2022/01/02 09:38:16;;;;;;;9.45;5.55;;;;;;;9.97;100.00;101193.94;5090551;28;20101;-88
2022/01/02 09:40:42;;;;;;;13.65;5.93;;;;;;;10.02;100.00;101187.78;5090373;28;20050;-89
2022/01/02 09:43:08;;;;;;;9.68;5.35;;;;;;;10.00;100.00;101183.47;5094421;28;20047;-90
2022/01/02 09:45:35;;;;;;;8.43;5.60;;;;;;;10.08;99.21;101185.09;5094959;28;20028;-88
2022/01/02 09:48:02;;;;;;;13.45;5.47;;;;;;;10.13;97.72;101185.00;5094408;28;20386;-88
2022/01/02 09:50:27;;;;;;;12.20;5.80;;;;;;;10.20;97.70;101196.19;5093206;28;20433;-88
2022/01/02 09:52:53;;;;;;;9.73;5.30;;;;;;;10.17;98.78;101204.94;5095228;28;20020;-88
2022/01/02 09:55:18;;;;;;;9.02;5.57;;;;;;;10.15;98.08;101216.25;5094120;28;20055;-88
2022/01/02 09:57:45;;;;;;;14.55;5.70;;;;;;;10.21;96.46;101196.19;5094919;28;20024;-88
2022/01/02 10:00:11;;;;;;;10.68;5.90;;;;;;;10.30;96.29;101210.84;5095255;28;20054;-89
2022/01/02 10:03:00;;;;;;;11.90;5.57;;;;;;;10.29;95.81;101209.09;5094040;28;20028;-88
2022/01/02 10:05:27;;;;;;;7.80;5.60;;;;;;;10.35;95.35;101210.75;5093464;28;20379;-89
2022/01/02 10:07:54;;;;;;;11.23;5.95;;;;;;;10.44;94.09;101208.84;5095420;28;20028;-88
2022/01/02 10:10:21;;;;;;;10.73;6.03;;;;;;;10.58;93.73;101212.97;5094708;28;20016;-89
2022/01/02 10:12:46;;;;;;;11.38;5.10;;;;;;;10.82;93.24;101222.09;5094395;28;20119;-88
2022/01/02 10:15:15;;;;;;;10.20;5.00;;;;;;;11.02;93.28;101220.00;5095001;28;20030;-88
2022/01/02 10:17:51;;;;;;;9.25;5.47;;;;;;;11.04;91.88;101217.34;5093338;28;20046;-88
2022/01/02 10:20:16;;;;;;;8.80;5.20;;;;;;;11.06;91.71;101226.00;5092240;28;20553;-88
2022/01/02 10:23:06;;;;;;;11.13;5.05;;;;;;;10.96;93.11;101207.91;5093727;28;20032;-88
2022/01/02 10:25:42;;;;;;;12.85;5.53;;;;;;;10.98;92.53;101203.50;5094278;28;20426;-86
2022/01/02 10:28:32;;;;;;;11.82;5.25;;;;;;;11.04;91.43;101204.28;5094413;28;20024;-87
2022/01/02 10:31:14;;;;;;;12.63;5.13;;;;;;;11.07;90.67;101199.88;5093949;28;20114;-88
2022/01/02 10:33:56;;;;;;;7.53;5.03;;;;;;;11.19;91.86;101204.84;5094176;28;20036;-88
2022/01/02 10:36:29;;;;;;;15.05;5.35;;;;;;;11.30;90.04;101199.41;5077049;28;20021;-87
2022/01/02 10:39:06;;;;;;;11.55;6.70;;;;;;;11.39;91.53;101183.56;5073836;28;20028;-90
2022/01/02 10:41:35;;;;;;;11.77;4.40;;;;;;;11.45;89.27;101182.56;5073509;28;20035;-89
2022/01/02 10:44:21;;;;;;;11.82;5.32;;;;;;;11.54;89.12;101202.38;5073245;28;20469;-87
2022/01/02 10:47:08;;;;;;;9.77;5.30;;;;;;;11.50;89.66;101191.16;5073800;28;20468;-88
2022/01/02 10:50:06;;;;;;;10.38;5.07;;;;;;;11.49;89.56;101194.66;5085529;28;20034;-88
2022/01/02 10:52:39;;;;;;;11.40;4.75;;;;;;;11.56;88.17;101191.00;5093137;28;20024;-88
2022/01/02 10:55:17;;;;;;;12.07;4.97;;;;;;;11.62;88.94;101193.50;5093308;28;20047;-87
2022/01/02 10:57:47;;;;;;;9.27;4.50;;;;;;;11.57;89.08;101173.59;5093873;28;20387;-87
2022/01/02 11:00:13;;;;;;;12.95;4.95;;;;;;;11.59;87.91;101188.34;5093249;28;20020;-87
2022/01/02 11:02:39;;;;;;;10.98;5.10;;;;;;;11.64;86.84;101198.66;5093016;28;20097;-89
2022/01/02 11:05:08;;;;;;;10.40;4.75;;;;;;;11.64;87.48;101196.94;5073159;28;20464;-87
2022/01/02 11:07:43;;;;;;;8.38;4.65;;;;;;;11.79;87.71;101193.09;5072948;28;20032;-86
2022/01/02 11:10:10;;;;;;;12.50;4.35;;;;;;;11.90;86.60;101172.88;5073635;28;20116;-88
2022/01/02 11:12:38;;;;;;;12.77;4.93;;;;;;;11.89;86.27;101184.19;5071926;28;20036;-87
2022/01/02 11:15:05;;;;;;;7.55;4.40;;;;;;;11.94;86.94;101186.72;5073283;28;20032;-87
2022/01/02 11:17:33;;;;;;;9.85;4.35;;;;;;;11.79;87.09;101180.06;5081884;28;20047;-88
2022/01/02 11:19:58;;;;;;;9.15;4.57;;;;;;;11.69;88.06;101179.41;5092571;28;20024;-88
2022/01/02 11:22:33;;;;;;;12.30;4.63;;;;;;;11.74;87.71;101179.31;5093039;28;20028;-87
2022/01/02 11:25:08;;;;;;;10.07;5.32;;;;;;;11.95;86.88;101176.22;5093642;28;20119;-88